sensor_id;sensor_type;location;lat;lon;timestamp;pressure;altitude;pressure_sealevel;temperature;humidity
141;BME280;65;48.778;9.160;2023-04-30T00:01:19;98827.66;;;11.69;100.00
141;BME280;65;48.778;9.160;2023-04-30T00:04:05;98825.94;;;11.68;100.00
141;BME280;65;48.778;9.160;2023-04-30T00:06:50;98830.31;;;11.69;100.00
141;BME280;65;48.778;9.160;2023-04-30T00:09:36;98826.72;;;11.70;100.00
141;BME280;65;48.778;9.160;2023-04-30T00:12:22;98830.38;;;11.68;100.00
141;BME280;65;48.778;9.160;2023-04-30T00:15:08;98829.34;;;11.70;100.00
141;BME280;65;48.778;9.160;2023-04-30T00:17:54;98825.78;;;11.71;100.00
141;BME280;65;48.778;9.160;2023-04-30T00:20:39;98831.16;;;11.70;100.00
141;BME280;65;48.778;9.160;2023-04-30T00:23:25;98820.66;;;11.68;100.00
141;BME280;65;48.778;9.160;2023-04-30T00:26:11;98819.97;;;11.65;100.00
141;BME280;65;48.778;9.160;2023-04-30T00:28:56;98822.03;;;11.60;100.00
141;BME280;65;48.778;9.160;2023-04-30T00:31:42;98822.22;;;11.57;100.00
141;BME280;65;48.778;9.160;2023-04-30T00:34:28;98826.56;;;11.58;100.00
141;BME280;65;48.778;9.160;2023-04-30T00:37:14;98833.72;;;11.56;100.00
141;BME280;65;48.778;9.160;2023-04-30T00:40:00;98837.47;;;11.52;100.00
141;BME280;65;48.778;9.160;2023-04-30T00:42:45;98830.72;;;11.46;100.00
141;BME280;65;48.778;9.160;2023-04-30T00:45:33;98833.97;;;11.51;100.00
141;BME280;65;48.778;9.160;2023-04-30T00:48:18;98841.31;;;11.46;100.00
141;BME280;65;48.778;9.160;2023-04-30T00:51:04;98837.66;;;11.49;100.00
141;BME280;65;48.778;9.160;2023-04-30T00:53:50;98836.13;;;11.45;100.00
141;BME280;65;48.778;9.160;2023-04-30T00:56:36;98842.44;;;11.42;100.00
141;BME280;65;48.778;9.160;2023-04-30T00:59:22;98844.22;;;11.41;100.00
141;BME280;65;48.778;9.160;2023-04-30T01:02:09;98836.03;;;11.46;100.00
141;BME280;65;48.778;9.160;2023-04-30T01:04:55;98838.66;;;11.46;100.00
141;BME280;65;48.778;9.160;2023-04-30T01:07:41;98838.59;;;11.48;100.00
141;BME280;65;48.778;9.160;2023-04-30T01:10:35;98837.66;;;11.49;100.00
141;BME280;65;48.778;9.160;2023-04-30T01:13:38;98835.84;;;11.49;100.00
141;BME280;65;48.778;9.160;2023-04-30T01:16:27;98834.81;;;11.52;100.00
141;BME280;65;48.778;9.160;2023-04-30T01:19:35;98833.38;;;11.46;100.00
141;BME280;65;48.778;9.160;2023-04-30T01:22:34;98830.56;;;11.49;100.00
141;BME280;65;48.778;9.160;2023-04-30T01:28:26;98828.44;;;11.40;100.00
141;BME280;65;48.778;9.160;2023-04-30T01:31:13;98829.53;;;11.36;100.00
141;BME280;65;48.778;9.160;2023-04-30T01:33:59;98825.97;;;11.37;100.00
141;BME280;65;48.778;9.160;2023-04-30T01:39:56;98821.34;;;11.25;100.00
141;BME280;65;48.778;9.160;2023-04-30T01:42:52;98817.94;;;11.23;100.00
141;BME280;65;48.778;9.160;2023-04-30T01:45:55;98820.31;;;11.27;100.00
141;BME280;65;48.778;9.160;2023-04-30T01:52:02;98821.34;;;11.25;100.00
141;BME280;65;48.778;9.160;2023-04-30T01:58:19;98823.41;;;11.20;100.00
141;BME280;65;48.778;9.160;2023-04-30T02:04:12;98822.13;;;11.11;100.00
141;BME280;65;48.778;9.160;2023-04-30T02:06:58;98823.31;;;11.05;100.00
141;BME280;65;48.778;9.160;2023-04-30T02:09:44;98823.88;;;10.95;100.00
141;BME280;65;48.778;9.160;2023-04-30T02:12:29;98821.47;;;10.90;100.00
141;BME280;65;48.778;9.160;2023-04-30T02:15:15;98820.63;;;10.90;100.00
141;BME280;65;48.778;9.160;2023-04-30T02:18:01;98822.84;;;10.97;100.00
141;BME280;65;48.778;9.160;2023-04-30T02:20:47;98829.09;;;10.96;100.00
141;BME280;65;48.778;9.160;2023-04-30T02:23:32;98823.03;;;10.94;100.00
141;BME280;65;48.778;9.160;2023-04-30T02:26:18;98828.41;;;10.93;100.00
141;BME280;65;48.778;9.160;2023-04-30T02:29:04;98830.34;;;10.89;100.00
141;BME280;65;48.778;9.160;2023-04-30T02:31:50;98828.97;;;10.82;100.00
141;BME280;65;48.778;9.160;2023-04-30T02:34:36;98824.03;;;10.76;100.00
141;BME280;65;48.778;9.160;2023-04-30T02:37:21;98824.03;;;10.76;100.00
141;BME280;65;48.778;9.160;2023-04-30T02:40:07;98822.66;;;10.69;100.00
141;BME280;65;48.778;9.160;2023-04-30T02:42:53;98818.63;;;10.62;100.00
141;BME280;65;48.778;9.160;2023-04-30T02:45:41;98821.78;;;10.68;100.00
141;BME280;65;48.778;9.160;2023-04-30T02:48:26;98823.84;;;10.79;100.00
141;BME280;65;48.778;9.160;2023-04-30T02:51:12;98825.41;;;10.83;100.00
141;BME280;65;48.778;9.160;2023-04-30T02:53:58;98824.03;;;10.76;100.00
141;BME280;65;48.778;9.160;2023-04-30T02:56:45;98824.34;;;10.70;100.00
141;BME280;65;48.778;9.160;2023-04-30T02:59:31;98825.38;;;10.67;100.00
141;BME280;65;48.778;9.160;2023-04-30T03:02:17;98825.38;;;10.67;100.00
141;BME280;65;48.778;9.160;2023-04-30T03:05:06;98831.16;;;10.58;100.00
141;BME280;65;48.778;9.160;2023-04-30T03:07:58;98823.47;;;10.54;100.00
141;BME280;65;48.778;9.160;2023-04-30T03:10:43;98819.88;;;10.55;100.00
141;BME280;65;48.778;9.160;2023-04-30T03:13:29;98822.72;;;10.67;100.00
141;BME280;65;48.778;9.160;2023-04-30T03:16:15;98825.38;;;10.67;100.00
141;BME280;65;48.778;9.160;2023-04-30T03:19:00;98831.00;;;10.61;100.00
141;BME280;65;48.778;9.160;2023-04-30T03:21:46;98828.59;;;10.57;100.00
141;BME280;65;48.778;9.160;2023-04-30T03:24:32;98820.56;;;10.58;100.00
141;BME280;65;48.778;9.160;2023-04-30T03:27:18;98825.34;;;10.52;100.00
141;BME280;65;48.778;9.160;2023-04-30T03:30:04;98815.78;;;10.49;100.00
141;BME280;65;48.778;9.160;2023-04-30T03:32:50;98819.88;;;10.55;100.00
141;BME280;65;48.778;9.160;2023-04-30T03:35:36;98819.97;;;10.53;100.00
141;BME280;65;48.778;9.160;2023-04-30T03:38:21;98814.41;;;10.42;100.00
141;BME280;65;48.778;9.160;2023-04-30T03:41:07;98816.63;;;10.32;100.00
141;BME280;65;48.778;9.160;2023-04-30T03:43:53;98816.97;;;10.26;100.00
141;BME280;65;48.778;9.160;2023-04-30T03:46:39;98829.16;;;10.29;100.00
141;BME280;65;48.778;9.160;2023-04-30T03:49:24;98816.19;;;10.24;100.00
141;BME280;65;48.778;9.160;2023-04-30T03:52:10;98816.41;;;10.20;100.00
141;BME280;65;48.778;9.160;2023-04-30T03:54:56;98817.19;;;10.22;100.00
141;BME280;65;48.778;9.160;2023-04-30T03:57:42;98822.25;;;10.26;100.00
141;BME280;65;48.778;9.160;2023-04-30T04:00:27;98824.66;;;10.31;100.00
141;BME280;65;48.778;9.160;2023-04-30T04:03:14;98821.16;;;10.30;100.00
141;BME280;65;48.778;9.160;2023-04-30T04:06:00;98819.28;;;10.32;100.00
141;BME280;65;48.778;9.160;2023-04-30T04:08:45;98822.00;;;10.31;100.00
141;BME280;65;48.778;9.160;2023-04-30T04:11:31;98820.75;;;10.38;100.00
141;BME280;65;48.778;9.160;2023-04-30T04:14:17;98826.19;;;10.35;100.00
141;BME280;65;48.778;9.160;2023-04-30T04:17:03;98832.56;;;10.31;100.00
141;BME280;65;48.778;9.160;2023-04-30T04:19:50;98841.34;;;10.31;100.00
141;BME280;65;48.778;9.160;2023-04-30T04:22:45;98838.88;;;10.28;100.00
141;BME280;65;48.778;9.160;2023-04-30T04:25:31;98840.50;;;10.31;100.00
141;BME280;65;48.778;9.160;2023-04-30T04:28:17;98833.09;;;10.37;100.00
141;BME280;65;48.778;9.160;2023-04-30T04:31:03;98836.47;;;10.41;100.00
141;BME280;65;48.778;9.160;2023-04-30T04:33:49;98837.16;;;10.44;100.00
141;BME280;65;48.778;9.160;2023-04-30T04:36:42;98844.06;;;10.47;100.00
141;BME280;65;48.778;9.160;2023-04-30T04:39:28;98846.47;;;10.52;100.00
141;BME280;65;48.778;9.160;2023-04-30T04:42:14;98845.47;;;10.54;100.00
141;BME280;65;48.778;9.160;2023-04-30T04:45:01;98847.16;;;10.55;100.00
141;BME280;65;48.778;9.160;2023-04-30T04:47:48;98843.50;;;10.58;100.00
141;BME280;65;48.778;9.160;2023-04-30T04:50:34;98844.13;;;10.63;100.00
141;BME280;65;48.778;9.160;2023-04-30T04:53:20;98843.78;;;10.69;100.00
141;BME280;65;48.778;9.160;2023-04-30T04:56:06;98841.44;;;10.80;100.00
141;BME280;65;48.778;9.160;2023-04-30T04:58:52;98844.59;;;10.87;100.00
141;BME280;65;48.778;9.160;2023-04-30T05:01:38;98839.56;;;10.98;100.00
141;BME280;65;48.778;9.160;2023-04-30T05:04:24;98840.91;;;11.06;100.00
141;BME280;65;48.778;9.160;2023-04-30T05:07:09;98840.56;;;11.13;100.00
141;BME280;65;48.778;9.160;2023-04-30T05:09:55;98836.53;;;11.21;100.00
141;BME280;65;48.778;9.160;2023-04-30T05:12:41;98844.91;;;11.29;100.00
141;BME280;65;48.778;9.160;2023-04-30T05:15:27;98834.06;;;11.34;100.00
141;BME280;65;48.778;9.160;2023-04-30T05:18:21;98833.63;;;11.41;100.00
141;BME280;65;48.778;9.160;2023-04-30T05:21:07;98843.78;;;11.49;100.00
141;BME280;65;48.778;9.160;2023-04-30T05:23:53;98833.31;;;11.63;100.00
141;BME280;65;48.778;9.160;2023-04-30T05:26:44;98838.41;;;11.66;100.00
141;BME280;65;48.778;9.160;2023-04-30T05:29:30;98838.84;;;11.75;99.57
141;BME280;65;48.778;9.160;2023-04-30T05:32:16;98846.78;;;11.75;100.00
141;BME280;65;48.778;9.160;2023-04-30T05:35:02;98843.44;;;11.87;97.74
141;BME280;65;48.778;9.160;2023-04-30T05:37:47;98843.72;;;11.82;98.71
141;BME280;65;48.778;9.160;2023-04-30T05:40:33;98841.56;;;11.89;99.42
141;BME280;65;48.778;9.160;2023-04-30T05:43:19;98844.25;;;12.03;99.49
141;BME280;65;48.778;9.160;2023-04-30T05:46:04;98840.38;;;12.24;97.52
141;BME280;65;48.778;9.160;2023-04-30T05:48:50;98841.63;;;12.47;94.27
141;BME280;65;48.778;9.160;2023-04-30T05:51:36;98844.38;;;12.60;92.20
141;BME280;65;48.778;9.160;2023-04-30T05:54:22;98842.03;;;12.70;90.94
141;BME280;65;48.778;9.160;2023-04-30T05:57:07;98845.53;;;12.70;91.08
141;BME280;65;48.778;9.160;2023-04-30T05:59:53;98842.41;;;12.63;90.67
141;BME280;65;48.778;9.160;2023-04-30T06:02:39;98847.66;;;12.79;89.89
141;BME280;65;48.778;9.160;2023-04-30T06:05:25;98846.31;;;13.01;86.93
141;BME280;65;48.778;9.160;2023-04-30T06:08:12;98849.91;;;12.85;86.61
141;BME280;65;48.778;9.160;2023-04-30T06:10:58;98852.94;;;13.08;86.75
141;BME280;65;48.778;9.160;2023-04-30T06:13:46;98847.16;;;12.73;86.51
141;BME280;65;48.778;9.160;2023-04-30T06:16:32;98847.72;;;12.92;86.35
141;BME280;65;48.778;9.160;2023-04-30T06:19:18;98854.16;;;13.02;85.88
141;BME280;65;48.778;9.160;2023-04-30T06:22:03;98848.94;;;13.15;86.52
141;BME280;65;48.778;9.160;2023-04-30T06:24:49;98844.78;;;13.25;84.96
141;BME280;65;48.778;9.160;2023-04-30T06:27:35;98853.81;;;13.37;83.97
141;BME280;65;48.778;9.160;2023-04-30T06:30:21;98849.66;;;13.59;81.65
141;BME280;65;48.778;9.160;2023-04-30T06:33:06;98857.13;;;13.67;81.84
141;BME280;65;48.778;9.160;2023-04-30T06:35:52;98855.72;;;13.61;85.28
141;BME280;65;48.778;9.160;2023-04-30T06:38:41;98857.88;;;13.96;80.92
141;BME280;65;48.778;9.160;2023-04-30T06:41:27;98860.69;;;14.07;78.58
141;BME280;65;48.778;9.160;2023-04-30T06:44:13;98854.31;;;13.83;80.34
141;BME280;65;48.778;9.160;2023-04-30T06:46:59;98855.25;;;13.82;80.77
141;BME280;65;48.778;9.160;2023-04-30T06:49:45;98857.06;;;14.08;77.32
141;BME280;65;48.778;9.160;2023-04-30T06:52:30;98855.19;;;14.50;77.75
141;BME280;65;48.778;9.160;2023-04-30T06:55:16;98859.97;;;14.58;75.60
141;BME280;65;48.778;9.160;2023-04-30T06:58:02;98860.28;;;14.66;74.27
141;BME280;65;48.778;9.160;2023-04-30T07:00:49;98862.53;;;15.59;71.75
141;BME280;65;48.778;9.160;2023-04-30T07:03:35;98860.50;;;16.34;67.82
141;BME280;65;48.778;9.160;2023-04-30T07:06:21;98858.47;;;16.95;63.25
141;BME280;65;48.778;9.160;2023-04-30T07:09:06;98854.81;;;18.07;58.18
141;BME280;65;48.778;9.160;2023-04-30T07:11:58;98848.13;;;18.33;55.21
141;BME280;65;48.778;9.160;2023-04-30T07:14:44;98839.59;;;19.42;52.94
141;BME280;65;48.778;9.160;2023-04-30T07:17:30;98839.63;;;19.51;52.56
141;BME280;65;48.778;9.160;2023-04-30T07:20:16;98845.00;;;19.11;53.13
141;BME280;65;48.778;9.160;2023-04-30T07:23:02;98847.66;;;17.42;59.63
141;BME280;65;48.778;9.160;2023-04-30T07:25:48;98837.97;;;17.84;56.93
141;BME280;65;48.778;9.160;2023-04-30T07:28:33;98841.03;;;17.79;57.27
141;BME280;65;48.778;9.160;2023-04-30T07:31:19;98848.44;;;18.19;55.82
141;BME280;65;48.778;9.160;2023-04-30T07:34:05;98844.13;;;17.41;58.28
141;BME280;65;48.778;9.160;2023-04-30T07:36:51;98838.56;;;17.11;58.54
141;BME280;65;48.778;9.160;2023-04-30T07:39:36;98830.16;;;17.26;60.70
141;BME280;65;48.778;9.160;2023-04-30T07:42:22;98827.56;;;18.66;53.89
141;BME280;65;48.778;9.160;2023-04-30T07:45:08;98831.13;;;20.06;50.26
141;BME280;65;48.778;9.160;2023-04-30T07:47:54;98824.72;;;21.21;46.69
141;BME280;65;48.778;9.160;2023-04-30T07:50:40;98827.19;;;22.32;45.16
141;BME280;65;48.778;9.160;2023-04-30T07:53:25;98819.94;;;22.77;43.50
141;BME280;65;48.778;9.160;2023-04-30T07:56:11;98812.38;;;23.74;42.10
141;BME280;65;48.778;9.160;2023-04-30T07:58:57;98814.81;;;24.83;39.98
141;BME280;65;48.778;9.160;2023-04-30T08:01:43;98815.00;;;24.65;36.36
141;BME280;65;48.778;9.160;2023-04-30T08:04:29;98820.25;;;22.91;38.72
141;BME280;65;48.778;9.160;2023-04-30T08:07:15;98819.16;;;22.40;41.78
141;BME280;65;48.778;9.160;2023-04-30T08:10:02;98814.13;;;22.81;40.73
141;BME280;65;48.778;9.160;2023-04-30T08:12:48;98825.88;;;23.06;43.63
141;BME280;65;48.778;9.160;2023-04-30T08:15:35;98814.63;;;23.95;39.47
141;BME280;65;48.778;9.160;2023-04-30T08:18:22;98816.25;;;23.72;37.25
141;BME280;65;48.778;9.160;2023-04-30T08:21:08;98812.06;;;23.43;37.72
141;BME280;65;48.778;9.160;2023-04-30T08:23:54;98815.97;;;24.07;38.24
141;BME280;65;48.778;9.160;2023-04-30T08:26:39;98815.94;;;23.75;39.12
141;BME280;65;48.778;9.160;2023-04-30T08:29:25;98823.69;;;23.10;39.78
141;BME280;65;48.778;9.160;2023-04-30T08:32:12;98820.66;;;23.73;37.07
141;BME280;65;48.778;9.160;2023-04-30T08:34:58;98816.81;;;24.08;36.69
141;BME280;65;48.778;9.160;2023-04-30T08:37:43;98819.13;;;23.02;38.20
141;BME280;65;48.778;9.160;2023-04-30T08:40:29;98819.81;;;19.73;43.33
141;BME280;65;48.778;9.160;2023-04-30T08:43:15;98824.44;;;19.21;44.68
141;BME280;65;48.778;9.160;2023-04-30T08:46:01;98813.66;;;17.87;47.97
141;BME280;65;48.778;9.160;2023-04-30T08:48:47;98816.72;;;18.35;46.46
141;BME280;65;48.778;9.160;2023-04-30T08:51:33;98814.59;;;18.50;46.63
141;BME280;65;48.778;9.160;2023-04-30T08:54:21;98812.00;;;19.11;44.84
141;BME280;65;48.778;9.160;2023-04-30T08:57:08;98809.19;;;21.25;41.17
141;BME280;65;48.778;9.160;2023-04-30T08:59:55;98811.03;;;23.78;34.78
141;BME280;65;48.778;9.160;2023-04-30T09:02:56;98813.63;;;24.04;33.86
141;BME280;65;48.778;9.160;2023-04-30T09:05:41;98807.94;;;24.48;31.67
141;BME280;65;48.778;9.160;2023-04-30T09:08:43;98807.44;;;23.61;32.61
141;BME280;65;48.778;9.160;2023-04-30T09:11:31;98808.03;;;22.00;35.79
141;BME280;65;48.778;9.160;2023-04-30T09:14:23;98806.56;;;20.49;38.83
141;BME280;65;48.778;9.160;2023-04-30T09:17:20;98803.88;;;20.49;39.45
141;BME280;65;48.778;9.160;2023-04-30T09:20:11;98805.94;;;20.84;37.67
141;BME280;65;48.778;9.160;2023-04-30T09:23:08;98802.88;;;19.82;42.29
141;BME280;65;48.778;9.160;2023-04-30T09:25:54;98803.66;;;19.54;43.11
141;BME280;65;48.778;9.160;2023-04-30T09:28:53;98806.03;;;19.07;44.79
141;BME280;65;48.778;9.160;2023-04-30T09:31:42;98810.56;;;18.76;43.22
141;BME280;65;48.778;9.160;2023-04-30T09:34:33;98809.81;;;18.32;44.06
141;BME280;65;48.778;9.160;2023-04-30T09:37:20;98810.84;;;17.34;44.55
141;BME280;65;48.778;9.160;2023-04-30T09:40:06;98807.69;;;17.40;45.30
141;BME280;65;48.778;9.160;2023-04-30T09:42:59;98810.25;;;17.19;45.31
141;BME280;65;48.778;9.160;2023-04-30T09:45:47;98809.50;;;17.51;46.54
141;BME280;65;48.778;9.160;2023-04-30T09:48:40;98804.66;;;18.20;42.90
141;BME280;65;48.778;9.160;2023-04-30T09:51:27;98806.66;;;18.48;43.02
141;BME280;65;48.778;9.160;2023-04-30T09:54:13;98807.84;;;18.14;44.42
141;BME280;65;48.778;9.160;2023-04-30T09:57:01;98808.91;;;18.22;42.10
141;BME280;65;48.778;9.160;2023-04-30T09:59:47;98806.03;;;17.82;43.63
141;BME280;65;48.778;9.160;2023-04-30T10:03:05;98807.03;;;17.70;44.11
141;BME280;65;48.778;9.160;2023-04-30T10:05:52;98797.66;;;17.76;42.87
141;BME280;65;48.778;9.160;2023-04-30T10:08:39;98800.34;;;18.08;43.01
141;BME280;65;48.778;9.160;2023-04-30T10:11:27;98808.56;;;18.16;42.45
141;BME280;65;48.778;9.160;2023-04-30T10:14:15;98802.56;;;17.91;44.50
141;BME280;65;48.778;9.160;2023-04-30T10:17:02;98802.81;;;17.99;44.57
141;BME280;65;48.778;9.160;2023-04-30T10:19:51;98794.47;;;17.93;43.62
141;BME280;65;48.778;9.160;2023-04-30T10:22:38;98793.63;;;17.92;44.93
141;BME280;65;48.778;9.160;2023-04-30T10:25:27;98794.16;;;18.07;42.41
141;BME280;65;48.778;9.160;2023-04-30T10:28:15;98784.25;;;17.44;44.12
141;BME280;65;48.778;9.160;2023-04-30T10:31:01;98790.50;;;17.76;43.11
141;BME280;65;48.778;9.160;2023-04-30T10:37:19;98796.50;;;17.89;41.49
141;BME280;65;48.778;9.160;2023-04-30T10:40:07;98788.84;;;17.53;45.48
141;BME280;65;48.778;9.160;2023-04-30T10:42:54;98784.22;;;17.55;44.20
141;BME280;65;48.778;9.160;2023-04-30T10:45:42;98785.66;;;17.70;44.32
141;BME280;65;48.778;9.160;2023-04-30T10:48:28;98790.69;;;17.41;43.73
141;BME280;65;48.778;9.160;2023-04-30T10:51:16;98785.78;;;17.57;43.63
141;BME280;65;48.778;9.160;2023-04-30T10:54:02;98782.47;;;17.76;42.90
141;BME280;65;48.778;9.160;2023-04-30T10:56:50;98778.31;;;17.40;47.28
141;BME280;65;48.778;9.160;2023-04-30T10:59:36;98775.31;;;17.65;45.96
141;BME280;65;48.778;9.160;2023-04-30T11:02:22;98778.44;;;17.82;43.55
141;BME280;65;48.778;9.160;2023-04-30T11:05:12;98775.88;;;18.54;42.63
141;BME280;65;48.778;9.160;2023-04-30T11:07:58;98774.22;;;18.42;42.94
141;BME280;65;48.778;9.160;2023-04-30T11:10:58;98771.13;;;18.16;44.03
141;BME280;65;48.778;9.160;2023-04-30T11:13:59;98782.47;;;18.50;44.98
141;BME280;65;48.778;9.160;2023-04-30T11:16:48;98772.34;;;18.53;43.53
141;BME280;65;48.778;9.160;2023-04-30T11:19:41;98774.72;;;18.68;46.46
141;BME280;65;48.778;9.160;2023-04-30T11:22:30;98763.09;;;19.28;41.78
141;BME280;65;48.778;9.160;2023-04-30T11:25:21;98757.94;;;19.65;40.10
141;BME280;65;48.778;9.160;2023-04-30T11:28:19;98757.59;;;19.30;42.77
141;BME280;65;48.778;9.160;2023-04-30T11:31:05;98765.31;;;18.52;42.82
141;BME280;65;48.778;9.160;2023-04-30T11:33:54;98761.03;;;17.87;45.21
141;BME280;65;48.778;9.160;2023-04-30T11:36:40;98763.66;;;17.98;44.59
141;BME280;65;48.778;9.160;2023-04-30T11:39:27;98760.06;;;18.30;44.76
141;BME280;65;48.778;9.160;2023-04-30T11:42:17;98759.09;;;18.52;42.56
141;BME280;65;48.778;9.160;2023-04-30T11:47:53;98759.41;;;18.58;43.54
141;BME280;65;48.778;9.160;2023-04-30T11:50:41;98756.59;;;18.60;43.50
141;BME280;65;48.778;9.160;2023-04-30T11:53:27;98754.72;;;18.72;43.10
141;BME280;65;48.778;9.160;2023-04-30T11:56:23;98746.41;;;18.75;42.48
141;BME280;65;48.778;9.160;2023-04-30T11:59:09;98740.38;;;18.82;42.26
141;BME280;65;48.778;9.160;2023-04-30T12:01:55;98744.53;;;18.66;45.45
141;BME280;65;48.778;9.160;2023-04-30T12:04:44;98731.66;;;18.90;42.82
141;BME280;65;48.778;9.160;2023-04-30T12:07:31;98734.94;;;19.03;44.08
141;BME280;65;48.778;9.160;2023-04-30T12:10:21;98726.19;;;19.01;42.42
141;BME280;65;48.778;9.160;2023-04-30T12:13:07;98719.34;;;19.18;44.63
141;BME280;65;48.778;9.160;2023-04-30T12:15:59;98727.53;;;19.16;42.62
141;BME280;65;48.778;9.160;2023-04-30T12:18:46;98723.09;;;19.55;40.75
141;BME280;65;48.778;9.160;2023-04-30T12:21:33;98714.56;;;18.51;41.05
141;BME280;65;48.778;9.160;2023-04-30T12:24:18;98728.47;;;18.45;42.24
141;BME280;65;48.778;9.160;2023-04-30T12:27:04;98732.34;;;18.52;42.32
141;BME280;65;48.778;9.160;2023-04-30T12:29:50;98727.50;;;18.67;42.43
141;BME280;65;48.778;9.160;2023-04-30T12:32:41;98735.47;;;18.36;42.15
141;BME280;65;48.778;9.160;2023-04-30T12:35:28;98729.34;;;18.04;46.83
141;BME280;65;48.778;9.160;2023-04-30T12:38:15;98734.28;;;18.29;43.71
141;BME280;65;48.778;9.160;2023-04-30T12:41:10;98737.84;;;18.09;44.93
141;BME280;65;48.778;9.160;2023-04-30T12:47:06;98734.28;;;18.29;45.97
141;BME280;65;48.778;9.160;2023-04-30T12:49:52;98735.59;;;18.55;45.04
141;BME280;65;48.778;9.160;2023-04-30T12:52:38;98725.38;;;18.49;43.70
141;BME280;65;48.778;9.160;2023-04-30T12:55:27;98731.75;;;18.27;43.27
141;BME280;65;48.778;9.160;2023-04-30T12:58:14;98724.66;;;18.47;43.11
141;BME280;65;48.778;9.160;2023-04-30T13:01:01;98716.81;;;18.76;42.97
141;BME280;65;48.778;9.160;2023-04-30T13:03:46;98709.50;;;18.78;43.76
141;BME280;65;48.778;9.160;2023-04-30T13:06:32;98703.97;;;18.49;44.12
141;BME280;65;48.778;9.160;2023-04-30T13:09:19;98702.22;;;19.00;44.27
141;BME280;65;48.778;9.160;2023-04-30T13:12:06;98703.72;;;19.42;40.97
141;BME280;65;48.778;9.160;2023-04-30T13:14:52;98703.63;;;19.04;43.36
141;BME280;65;48.778;9.160;2023-04-30T13:17:37;98693.13;;;19.21;43.48
141;BME280;65;48.778;9.160;2023-04-30T13:20:23;98696.06;;;19.09;44.69
141;BME280;65;48.778;9.160;2023-04-30T13:23:10;98689.31;;;19.14;40.70
141;BME280;65;48.778;9.160;2023-04-30T13:25:59;98680.78;;;19.00;41.27
141;BME280;65;48.778;9.160;2023-04-30T13:28:44;98686.78;;;18.73;43.62
141;BME280;65;48.778;9.160;2023-04-30T13:31:30;98678.38;;;18.87;42.20
141;BME280;65;48.778;9.160;2023-04-30T13:34:16;98673.53;;;19.40;42.35
141;BME280;65;48.778;9.160;2023-04-30T13:37:02;98679.19;;;19.85;39.22
141;BME280;65;48.778;9.160;2023-04-30T13:39:47;98671.28;;;19.55;40.18
141;BME280;65;48.778;9.160;2023-04-30T13:42:36;98677.78;;;19.81;40.70
141;BME280;65;48.778;9.160;2023-04-30T13:45:22;98672.72;;;19.69;41.38
141;BME280;65;48.778;9.160;2023-04-30T13:48:08;98678.78;;;19.80;40.31
141;BME280;65;48.778;9.160;2023-04-30T13:50:53;98679.94;;;19.68;39.74
141;BME280;65;48.778;9.160;2023-04-30T13:53:39;98674.38;;;19.31;40.40
141;BME280;65;48.778;9.160;2023-04-30T13:56:25;98670.72;;;19.61;39.21
141;BME280;65;48.778;9.160;2023-04-30T13:59:11;98669.13;;;20.07;40.71
141;BME280;65;48.778;9.160;2023-04-30T14:01:57;98664.97;;;20.22;38.17
141;BME280;65;48.778;9.160;2023-04-30T14:04:42;98670.44;;;19.83;41.78
141;BME280;65;48.778;9.160;2023-04-30T14:07:28;98662.66;;;19.42;41.05
141;BME280;65;48.778;9.160;2023-04-30T14:10:14;98669.28;;;19.38;40.69
141;BME280;65;48.778;9.160;2023-04-30T14:13:00;98658.97;;;19.14;41.08
141;BME280;65;48.778;9.160;2023-04-30T14:15:45;98652.34;;;19.18;41.80
141;BME280;65;48.778;9.160;2023-04-30T14:18:32;98661.34;;;19.07;42.33
141;BME280;65;48.778;9.160;2023-04-30T14:21:18;98652.00;;;18.82;40.63
141;BME280;65;48.778;9.160;2023-04-30T14:24:04;98649.72;;;18.78;42.46
141;BME280;65;48.778;9.160;2023-04-30T14:26:50;98651.53;;;18.68;43.67
141;BME280;65;48.778;9.160;2023-04-30T14:29:35;98657.97;;;18.04;42.51
141;BME280;65;48.778;9.160;2023-04-30T14:32:24;98650.88;;;17.93;43.79
141;BME280;65;48.778;9.160;2023-04-30T14:35:10;98646.44;;;17.83;44.22
141;BME280;65;48.778;9.160;2023-04-30T14:37:55;98649.78;;;17.96;44.61
141;BME280;65;48.778;9.160;2023-04-30T14:40:42;98624.38;;;18.11;44.97
141;BME280;65;48.778;9.160;2023-04-30T14:43:28;98626.00;;;18.33;43.67
141;BME280;65;48.778;9.160;2023-04-30T14:46:14;98623.50;;;18.41;41.71
141;BME280;65;48.778;9.160;2023-04-30T14:48:59;98619.78;;;18.23;41.13
141;BME280;65;48.778;9.160;2023-04-30T14:51:45;98613.22;;;18.46;42.29
141;BME280;65;48.778;9.160;2023-04-30T14:54:31;98617.78;;;18.55;42.61
141;BME280;65;48.778;9.160;2023-04-30T14:57:17;98609.31;;;18.50;41.87
141;BME280;65;48.778;9.160;2023-04-30T15:00:03;98615.91;;;18.77;41.24
141;BME280;65;48.778;9.160;2023-04-30T15:02:51;98613.16;;;19.17;40.34
141;BME280;65;48.778;9.160;2023-04-30T15:05:36;98606.38;;;19.13;40.56
141;BME280;65;48.778;9.160;2023-04-30T15:08:22;98608.06;;;19.23;40.20
141;BME280;65;48.778;9.160;2023-04-30T15:11:09;98607.50;;;19.10;40.02
141;BME280;65;48.778;9.160;2023-04-30T15:13:57;98597.44;;;18.93;42.32
141;BME280;65;48.778;9.160;2023-04-30T15:16:43;98602.56;;;19.15;40.75
141;BME280;65;48.778;9.160;2023-04-30T15:19:29;98595.25;;;19.08;40.64
141;BME280;65;48.778;9.160;2023-04-30T15:22:15;98596.75;;;18.91;41.02
141;BME280;65;48.778;9.160;2023-04-30T15:25:01;98580.94;;;18.38;42.45
141;BME280;65;48.778;9.160;2023-04-30T15:27:46;98584.72;;;18.26;41.87
141;BME280;65;48.778;9.160;2023-04-30T15:30:32;98597.25;;;18.25;41.86
141;BME280;65;48.778;9.160;2023-04-30T15:33:18;98585.72;;;18.34;41.86
141;BME280;65;48.778;9.160;2023-04-30T15:36:04;98601.34;;;18.29;42.16
141;BME280;65;48.778;9.160;2023-04-30T15:38:50;98595.72;;;18.32;43.54
141;BME280;65;48.778;9.160;2023-04-30T15:41:36;98599.47;;;18.20;44.74
141;BME280;65;48.778;9.160;2023-04-30T15:44:22;98595.25;;;18.18;43.85
141;BME280;65;48.778;9.160;2023-04-30T15:47:07;98590.47;;;17.91;42.78
141;BME280;65;48.778;9.160;2023-04-30T15:49:53;98600.84;;;17.43;44.42
141;BME280;65;48.778;9.160;2023-04-30T15:52:39;98596.84;;;17.37;44.60
141;BME280;65;48.778;9.160;2023-04-30T15:55:25;98588.91;;;17.47;44.56
141;BME280;65;48.778;9.160;2023-04-30T15:58:11;98594.94;;;17.28;44.72
141;BME280;65;48.778;9.160;2023-04-30T16:00:57;98585.66;;;17.43;44.96
141;BME280;65;48.778;9.160;2023-04-30T16:03:43;98582.03;;;17.33;44.72
141;BME280;65;48.778;9.160;2023-04-30T16:06:29;98577.25;;;17.48;45.85
141;BME280;65;48.778;9.160;2023-04-30T16:09:16;98586.56;;;17.53;46.71